Time;durP1;ratioP1;P1;durP2;ratioP2;P2;SDS_P1;SDS_P2;PMS_P1;PMS_P2;Temp;Humidity;BMP_temperature;BMP_pressure;BME280_temperature;BME280_humidity;BME280_pressure;Samples;Min_cycle;Max_cycle;Signal;HPM_P1;HPM_P2
2021/03/21 00:03:04;;;;;;;52.60;21.15;;;;;;;25.30;26.54;157797.86;1724606;81;21100;-79
2021/03/21 00:05:38;;;;;;;69.92;26.87;;;;;;;24.31;27.20;157535.06;1719888;82;21318;-79
2021/03/21 00:08:25;;;;;;;69.55;24.25;;;;;;;24.14;27.41;157488.64;1750364;82;21327;-82
2021/03/21 00:11:45;;;;;;;56.50;21.25;;;;;;;24.15;27.44;157491.30;1751810;82;21285;-83
2021/03/21 00:14:20;;;;;;;58.95;22.70;;;;;;;24.04;27.47;157463.42;1728073;81;21396;-79
2021/03/21 00:16:54;;;;;;;55.98;22.90;;;;;;;24.07;27.47;157471.39;1693776;83;21312;-79
2021/03/21 00:19:27;;;;;;;51.25;21.70;;;;;;;24.17;27.47;157497.91;1721418;82;21176;-81
2021/03/21 00:22:00;;;;;;;50.50;21.00;;;;;;;24.36;27.28;157546.98;1713208;83;21226;-79
2021/03/21 00:24:33;;;;;;;56.80;22.15;;;;;;;24.09;27.42;157475.36;1713813;82;21701;-80
2021/03/21 00:27:08;;;;;;;56.73;24.10;;;;;;;24.03;27.37;157460.77;1712572;82;21323;-80
2021/03/21 00:29:43;;;;;;;55.55;23.52;;;;;;;23.87;27.51;157417.02;1691032;83;21238;-80
2021/03/21 00:32:16;;;;;;;51.88;21.33;;;;;;;24.16;27.39;157493.95;1693328;83;21366;-78
2021/03/21 00:34:49;;;;;;;47.45;20.62;;;;;;;24.26;27.12;157520.47;1687851;83;21189;-78
2021/03/21 00:37:23;;;;;;;51.98;21.55;;;;;;;24.09;27.29;157475.36;1709792;80;21219;-79
2021/03/21 00:39:55;;;;;;;62.33;25.00;;;;;;;23.83;27.39;157406.44;1713424;82;21221;-79
2021/03/21 00:42:28;;;;;;;70.57;26.12;;;;;;;23.90;27.50;157426.28;1677689;83;21150;-78
2021/03/21 00:45:01;;;;;;;67.72;27.95;;;;;;;23.70;27.67;157373.22;1704556;83;21764;-77
2021/03/21 00:47:35;;;;;;;62.53;25.37;;;;;;;23.77;27.50;157390.50;1709235;83;21362;-77
2021/03/21 00:50:10;;;;;;;66.25;25.15;;;;;;;23.89;27.48;157423.69;1689605;83;21181;-78
2021/03/21 00:52:43;;;;;;;66.60;26.05;;;;;;;23.50;27.49;157317.55;1690854;83;21201;-79
2021/03/21 00:55:16;;;;;;;61.53;27.13;;;;;;;23.88;27.32;157421.03;1711663;82;21153;-78
2021/03/21 00:57:49;;;;;;;64.55;25.92;;;;;;;23.68;27.42;157365.25;1700642;82;21347;-78
2021/03/21 01:00:29;;;;;;;48.98;21.62;;;;;;;23.52;27.49;157324.16;1692606;83;21832;-79
2021/03/21 01:03:03;;;;;;;58.35;21.70;;;;;;;23.71;27.23;157374.56;1693176;83;22192;-77
2021/03/21 01:05:39;;;;;;;56.40;22.70;;;;;;;23.35;27.49;157277.77;1696073;82;21755;-79
2021/03/21 01:08:36;;;;;;;50.28;20.10;;;;;;;22.72;27.93;157109.44;1711255;83;21320;-78
2021/03/21 01:11:15;;;;;;;50.75;21.20;;;;;;;22.48;28.24;157045.86;1712776;83;21316;-79
2021/03/21 01:13:48;;;;;;;40.23;17.75;;;;;;;22.74;28.06;157114.75;1702195;83;21315;-80
2021/03/21 01:16:30;;;;;;;46.95;18.35;;;;;;;23.06;27.79;157202.23;1703784;82;21334;-81
2021/03/21 01:19:03;;;;;;;47.67;19.07;;;;;;;23.33;27.57;157273.81;1726022;82;21154;-78
2021/03/21 01:21:43;;;;;;;37.05;17.85;;;;;;;23.15;27.60;157224.78;1728614;82;21196;-78
2021/03/21 01:24:20;;;;;;;25.70;11.60;;;;;;;23.22;27.49;157243.31;1726416;82;21312;-78
2021/03/21 01:26:53;;;;;;;38.20;15.00;;;;;;;23.11;27.58;157215.50;1725316;81;21832;-79
2021/03/21 01:29:26;;;;;;;33.70;14.58;;;;;;;22.76;27.78;157120.06;1722119;82;21284;-79
2021/03/21 01:31:59;;;;;;;28.00;12.58;;;;;;;22.82;27.75;157138.58;1731685;81;21766;-80
2021/03/21 01:34:32;;;;;;;23.92;11.97;;;;;;;22.98;27.57;157179.66;1730800;82;21839;-80
2021/03/21 01:37:05;;;;;;;20.15;10.53;;;;;;;23.06;27.51;157202.23;1730636;81;21336;-78
2021/03/21 01:39:39;;;;;;;22.25;10.25;;;;;;;22.86;27.62;157149.19;1738452;82;21161;-80
2021/03/21 01:42:14;;;;;;;26.65;11.45;;;;;;;22.87;27.71;157151.84;1723677;82;21188;-81
2021/03/21 01:44:47;;;;;;;22.95;9.10;;;;;;;22.77;27.77;157124.00;1719521;82;21687;-79
2021/03/21 01:47:27;;;;;;;17.82;8.78;;;;;;;22.76;27.78;157121.36;1719048;82;21189;-81
2021/03/21 01:50:01;;;;;;;20.20;9.50;;;;;;;22.99;27.54;157183.66;1729634;82;21347;-79
2021/03/21 01:52:39;;;;;;;22.35;9.48;;;;;;;23.00;27.40;157184.95;1709458;82;21182;-78
2021/03/21 01:55:14;;;;;;;18.23;9.30;;;;;;;22.86;27.30;157149.19;1725474;82;21368;-78
2021/03/21 01:57:46;;;;;;;17.95;8.65;;;;;;;22.66;27.40;157094.88;1720398;82;21195;-79
2021/03/21 02:00:20;;;;;;;19.67;9.28;;;;;;;22.75;27.22;157118.70;1721935;81;21359;-79
2021/03/21 02:02:53;;;;;;;18.40;10.35;;;;;;;22.25;27.60;156986.25;1738409;82;21984;-80
2021/03/21 02:05:26;;;;;;;17.37;9.65;;;;;;;22.04;27.80;156930.64;1722432;82;21208;-79
2021/03/21 02:08:18;;;;;;;18.15;9.63;;;;;;;21.91;27.94;156896.22;1725047;82;21963;-79
2021/03/21 02:11:13;;;;;;;15.93;9.33;;;;;;;22.31;27.69;157000.81;1727985;81;21173;-80
2021/03/21 02:14:11;;;;;;;16.42;7.22;;;;;;;22.13;27.98;156954.47;1694159;82;21303;-79
2021/03/21 02:17:10;;;;;;;11.15;7.10;;;;;;;22.12;28.02;156950.45;1715977;82;21324;-78
2021/03/21 02:20:14;;;;;;;14.30;7.55;;;;;;;22.19;28.02;156969.03;1734431;82;21157;-79
2021/03/21 02:22:53;;;;;;;14.45;7.47;;;;;;;22.33;27.83;157006.16;1728412;82;21296;-79
2021/03/21 02:25:53;;;;;;;15.28;6.50;;;;;;;22.38;27.79;157020.72;1741732;81;21824;-80
2021/03/21 02:28:55;;;;;;;24.23;9.50;;;;;;;22.16;27.90;156962.38;1736940;81;21202;-78
2021/03/21 02:31:35;;;;;;;12.55;7.05;;;;;;;22.39;27.77;157022.03;1784086;80;21261;-78
2021/03/21 02:34:14;;;;;;;14.73;6.53;;;;;;;21.98;28.05;156913.42;1771395;80;21368;-78
2021/03/21 02:36:52;;;;;;;12.60;6.55;;;;;;;22.22;27.84;156976.98;1769690;81;21757;-79
2021/03/21 02:39:38;;;;;;;14.35;6.75;;;;;;;21.90;28.03;156892.22;1766026;81;21301;-78
2021/03/21 02:42:15;;;;;;;14.85;6.30;;;;;;;21.66;28.24;156828.67;1769682;81;21187;-78
2021/03/21 02:44:53;;;;;;;15.18;7.47;;;;;;;21.35;28.59;156746.59;1716537;82;21175;-81
2021/03/21 02:47:29;;;;;;;13.65;7.28;;;;;;;21.14;28.74;156691.03;1741056;81;21201;-78
2021/03/21 02:50:07;;;;;;;14.47;6.80;;;;;;;21.13;28.87;156688.38;1734424;81;21335;-78
2021/03/21 02:52:50;;;;;;;15.08;7.30;;;;;;;22.09;28.18;156942.55;1734410;81;21846;-79
2021/03/21 02:55:30;;;;;;;14.80;7.25;;;;;;;22.27;28.01;156990.19;1766042;81;21294;-78
2021/03/21 02:58:29;;;;;;;18.20;6.97;;;;;;;22.30;27.92;156999.45;1759005;81;21170;-78
2021/03/21 03:01:08;;;;;;;13.55;6.92;;;;;;;22.24;28.01;156983.59;1726388;80;21694;-78
2021/03/21 03:03:46;;;;;;;13.10;6.53;;;;;;;21.73;28.55;156847.23;1741961;81;21162;-77
2021/03/21 03:06:42;;;;;;;15.13;7.92;;;;;;;21.92;28.41;156898.86;1738599;81;21919;-81
2021/03/21 03:09:28;;;;;;;16.67;7.60;;;;;;;22.05;28.32;156933.25;1722161;82;21223;-78
2021/03/21 03:12:18;;;;;;;17.92;7.53;;;;;;;22.07;28.23;156938.55;1731105;81;21261;-79
2021/03/21 03:14:51;;;;;;;16.42;7.62;;;;;;;21.37;28.82;156750.53;1713486;83;21819;-80
2021/03/21 03:17:49;;;;;;;13.93;7.25;;;;;;;22.00;28.34;156918.69;1716270;83;21811;-79
2021/03/21 03:20:38;;;;;;;14.05;6.28;;;;;;;22.08;28.29;156939.91;1701537;84;21187;-78
2021/03/21 03:23:18;;;;;;;16.85;7.05;;;;;;;21.22;28.86;156712.17;1701194;84;21341;-78
2021/03/21 03:26:13;;;;;;;15.58;7.97;;;;;;;21.21;28.98;156709.53;1721262;81;21346;-78
2021/03/21 03:29:03;;;;;;;13.85;7.17;;;;;;;21.13;29.06;156687.03;1739089;81;21174;-77
2021/03/21 03:31:44;;;;;;;12.07;6.72;;;;;;;21.46;28.83;156774.39;1727012;81;21308;-79
2021/03/21 03:34:17;;;;;;;12.90;6.17;;;;;;;21.41;28.86;156762.44;1721988;82;21295;-78
2021/03/21 03:36:50;;;;;;;11.48;5.95;;;;;;;21.03;29.07;156661.92;1722409;82;22246;-81
2021/03/21 03:39:24;;;;;;;13.40;6.55;;;;;;;20.98;29.20;156647.37;1718322;82;21319;-78
2021/03/21 03:42:44;;;;;;;10.88;6.08;;;;;;;21.12;29.01;156685.72;1724344;82;21209;-78
2021/03/21 03:45:46;;;;;;;11.35;6.20;;;;;;;21.03;29.13;156661.92;1726719;82;21314;-78
2021/03/21 03:48:43;;;;;;;12.90;6.92;;;;;;;21.06;29.08;156668.53;1723580;83;21311;-78
2021/03/21 03:51:46;;;;;;;12.45;5.97;;;;;;;21.03;29.17;156660.58;1725788;83;21326;-78
2021/03/21 03:54:44;;;;;;;11.05;6.08;;;;;;;20.95;29.20;156640.72;1645879;85;21845;-80
2021/03/21 03:57:43;;;;;;;10.82;5.78;;;;;;;21.14;28.99;156691.03;1636507;87;21312;-78
2021/03/21 04:00:41;;;;;;;10.88;5.62;;;;;;;20.93;29.13;156635.47;1671608;85;21847;-79
2021/03/21 04:03:52;;;;;;;11.83;6.03;;;;;;;20.83;29.20;156607.69;1661539;85;21229;-78
2021/03/21 04:06:52;;;;;;;13.30;6.10;;;;;;;20.88;29.05;156619.58;1674196;85;21193;-77
2021/03/21 04:09:49;;;;;;;11.18;5.47;;;;;;;20.73;29.18;156579.83;1684455;85;21160;-77
2021/03/21 04:12:35;;;;;;;11.45;5.87;;;;;;;20.88;29.02;156620.92;1679362;84;21773;-78
2021/03/21 04:15:15;;;;;;;9.48;4.83;;;;;;;20.83;29.14;156606.38;1685743;85;21889;-79
2021/03/21 04:18:13;;;;;;;11.28;5.75;;;;;;;20.89;29.04;156622.22;1666969;85;21325;-78
2021/03/21 04:21:03;;;;;;;10.55;5.85;;;;;;;20.84;29.00;156610.33;1720242;82;21331;-78
2021/03/21 04:23:45;;;;;;;11.30;5.67;;;;;;;20.74;29.13;156583.83;1722179;82;21349;-78
2021/03/21 04:26:23;;;;;;;9.38;6.03;;;;;;;20.77;29.27;156590.44;1720597;82;21346;-78
2021/03/21 04:29:06;;;;;;;11.22;6.15;;;;;;;20.76;29.22;156587.78;1717768;82;21331;-78
2021/03/21 04:31:41;;;;;;;11.60;6.03;;;;;;;20.79;29.27;156595.78;1714634;83;21703;-77
2021/03/21 04:34:14;;;;;;;11.73;6.17;;;;;;;20.81;29.27;156602.37;1712507;82;21177;-77
2021/03/21 04:36:47;;;;;;;12.23;6.78;;;;;;;20.85;29.26;156612.97;1722157;82;21183;-78
2021/03/21 04:39:24;;;;;;;11.97;6.50;;;;;;;20.91;29.23;156628.81;1725577;82;21818;-78
2021/03/21 04:42:07;;;;;;;11.63;7.62;;;;;;;21.00;29.23;156653.97;1724354;82;21309;-79
2021/03/21 04:44:54;;;;;;;13.45;6.72;;;;;;;21.04;29.16;156664.58;1728369;82;21313;-79
2021/03/21 04:47:31;;;;;;;15.05;7.87;;;;;;;21.02;29.13;156659.27;1728921;83;21949;-77
2021/03/21 04:50:05;;;;;;;11.35;6.78;;;;;;;20.88;29.29;156619.58;1727914;82;21184;-79
2021/03/21 04:52:51;;;;;;;14.05;6.35;;;;;;;21.03;29.25;156661.92;1694506;83;21343;-78
2021/03/21 04:55:52;;;;;;;10.98;6.40;;;;;;;20.96;29.36;156642.08;1727028;82;21376;-79
2021/03/21 04:58:40;;;;;;;9.65;6.25;;;;;;;20.94;29.39;156638.12;1733048;82;21313;-77
2021/03/21 05:01:20;;;;;;;11.28;6.72;;;;;;;20.95;29.52;156640.72;1714191;83;21313;-78
2021/03/21 05:04:00;;;;;;;12.47;5.97;;;;;;;20.82;29.76;156603.73;1718478;82;21201;-76
2021/03/21 05:06:55;;;;;;;11.55;5.50;;;;;;;20.73;29.95;156579.83;1719210;83;22131;-77
2021/03/21 05:09:31;;;;;;;10.40;5.60;;;;;;;20.86;29.87;156615.63;1726521;83;21298;-78
2021/03/21 05:12:24;;;;;;;11.53;5.92;;;;;;;20.73;30.13;156581.19;1715985;83;21321;-79
2021/03/21 05:15:03;;;;;;;9.50;5.60;;;;;;;20.77;30.09;156590.44;1724180;82;21211;-77
2021/03/21 05:17:57;;;;;;;11.65;5.65;;;;;;;20.64;30.27;156557.39;1726156;82;21318;-78
2021/03/21 05:21:22;;;;;;;13.05;6.05;;;;;;;20.83;30.17;156606.38;1726932;81;21848;-79
2021/03/21 05:24:08;;;;;;;10.45;6.70;;;;;;;20.55;30.42;156533.55;1723712;82;21859;-78
2021/03/21 05:26:56;;;;;;;12.35;6.92;;;;;;;20.63;30.21;156554.75;1740076;82;21220;-78
2021/03/21 05:30:00;;;;;;;11.20;5.72;;;;;;;20.67;30.37;156563.98;1721733;81;21179;-78
2021/03/21 05:32:33;;;;;;;11.00;6.50;;;;;;;20.85;30.25;156611.63;1728439;82;21726;-81
2021/03/21 05:35:07;;;;;;;13.45;5.95;;;;;;;21.13;30.13;156688.38;1733004;82;21786;-77
2021/03/21 05:38:12;;;;;;;11.43;6.08;;;;;;;21.49;29.80;156783.66;1733673;82;21192;-76
2021/03/21 05:41:14;;;;;;;10.03;6.47;;;;;;;21.34;29.73;156742.64;1730071;82;21352;-77
2021/03/21 05:44:10;;;;;;;10.82;5.15;;;;;;;22.26;28.90;156987.55;1660953;84;21206;-78
2021/03/21 05:47:23;;;;;;;10.63;5.65;;;;;;;21.91;29.17;156894.86;1644426;85;21344;-77
2021/03/21 05:50:22;;;;;;;10.50;6.12;;;;;;;21.66;29.55;156828.67;1657909;85;21190;-75
2021/03/21 05:53:06;;;;;;;8.60;5.45;;;;;;;22.02;29.27;156925.34;1683112;85;21377;-78
2021/03/21 05:55:56;;;;;;;10.72;5.95;;;;;;;21.85;29.40;156879.00;1726622;83;21330;-77
2021/03/21 05:59:07;;;;;;;12.45;6.62;;;;;;;22.00;29.13;156918.69;1728181;83;21693;-77
2021/03/21 06:01:51;;;;;;;14.83;6.03;;;;;;;21.96;29.12;156909.42;1721021;82;21178;-79
2021/03/21 06:04:40;;;;;;;11.15;5.80;;;;;;;22.18;29.23;156967.67;1719439;82;21828;-74
2021/03/21 06:07:50;;;;;;;11.80;5.55;;;;;;;22.23;29.03;156980.94;1730155;82;21313;-81
2021/03/21 06:10:45;;;;;;;9.98;5.90;;;;;;;22.37;28.83;157016.72;1720534;82;21264;-82
2021/03/21 06:13:26;;;;;;;10.58;5.45;;;;;;;22.51;28.67;157053.81;1699793;82;21372;-81
2021/03/21 06:16:16;;;;;;;10.55;5.87;;;;;;;22.61;28.68;157080.30;1717060;82;21312;-80
2021/03/21 06:19:16;;;;;;;10.70;5.22;;;;;;;22.73;28.39;157113.45;1727474;82;21326;-80
2021/03/21 06:22:34;;;;;;;11.28;5.65;;;;;;;22.71;28.30;157108.14;1739592;82;21198;-84
2021/03/21 06:25:40;;;;;;;9.95;5.95;;;;;;;22.74;27.98;157114.75;1711996;82;21334;-79
2021/03/21 06:28:50;;;;;;;13.55;7.83;;;;;;;22.82;27.78;157138.58;1736210;82;21705;-80
2021/03/21 06:31:42;;;;;;;12.45;7.12;;;;;;;22.85;27.72;157145.25;1692984;82;21312;-78
2021/03/21 06:34:53;;;;;;;13.20;7.15;;;;;;;22.72;27.82;157110.80;1727647;82;21775;-78
2021/03/21 06:38:03;;;;;;;13.98;7.78;;;;;;;23.44;27.71;157302.97;1679444;83;21178;-78
2021/03/21 06:41:12;;;;;;;16.65;9.60;;;;;;;23.67;27.67;157362.64;1698866;84;21351;-78
2021/03/21 06:44:28;;;;;;;14.30;8.73;;;;;;;23.78;27.11;157393.16;1699361;83;21367;-80
2021/03/21 06:47:24;;;;;;;14.65;8.40;;;;;;;23.94;26.92;157436.91;1687230;83;21343;-76
2021/03/21 06:50:47;;;;;;;15.88;8.13;;;;;;;23.79;26.91;157397.13;1714952;83;21346;-77
2021/03/21 06:53:42;;;;;;;16.62;9.35;;;;;;;23.78;26.91;157394.47;1676653;84;21201;-76
2021/03/21 06:56:51;;;;;;;18.85;9.38;;;;;;;23.81;26.94;157401.13;1661974;85;21203;-75
2021/03/21 07:00:11;;;;;;;17.17;8.75;;;;;;;24.07;26.52;157470.09;1681079;83;21183;-74
2021/03/21 07:03:19;;;;;;;19.80;8.98;;;;;;;23.96;26.72;157442.22;1683923;83;21269;-77
2021/03/21 07:06:30;;;;;;;17.90;9.43;;;;;;;24.05;26.69;157466.08;1675216;83;21219;-77
2021/03/21 07:09:11;;;;;;;16.40;8.00;;;;;;;24.29;26.58;157528.44;1675304;83;21200;-76
2021/03/21 07:12:13;;;;;;;19.27;9.70;;;;;;;23.72;26.64;157377.22;1665442;84;21204;-79
2021/03/21 07:15:24;;;;;;;17.57;9.68;;;;;;;23.88;27.02;157421.03;1675609;83;22062;-81
2021/03/21 07:18:24;;;;;;;16.50;8.83;;;;;;;23.64;26.96;157355.97;1675135;84;21180;-78
2021/03/21 07:21:51;;;;;;;16.07;8.58;;;;;;;23.59;27.17;157342.75;1682993;83;21268;-81
2021/03/21 07:24:45;;;;;;;19.42;10.25;;;;;;;23.89;26.68;157422.33;1719383;81;21233;-81
2021/03/21 07:27:41;;;;;;;18.07;10.35;;;;;;;23.84;26.65;157410.41;1733485;80;21197;-79
2021/03/21 07:30:30;;;;;;;18.17;9.28;;;;;;;23.95;26.12;157439.56;1725327;81;21387;-80
2021/03/21 07:33:19;;;;;;;18.62;9.50;;;;;;;23.88;26.29;157419.67;1724285;80;21222;-79
2021/03/21 07:36:13;;;;;;;16.82;10.05;;;;;;;23.68;26.62;157366.59;1692109;82;21369;-81
2021/03/21 07:39:19;;;;;;;19.02;9.83;;;;;;;23.75;26.43;157385.14;1726123;80;21245;-81
2021/03/21 07:42:34;;;;;;;20.57;10.35;;;;;;;23.95;25.80;157438.27;1690690;82;21394;-80
2021/03/21 07:45:44;;;;;;;17.17;9.40;;;;;;;23.87;25.73;157417.02;1677531;84;21240;-80
2021/03/21 07:48:42;;;;;;;17.85;9.33;;;;;;;24.06;25.71;157468.73;1646938;87;21325;-79
2021/03/21 07:51:45;;;;;;;19.48;9.70;;;;;;;23.65;25.53;157358.63;1650183;86;21341;-79
2021/03/21 07:54:38;;;;;;;19.45;9.80;;;;;;;24.01;25.68;157454.16;1721442;83;21808;-79
2021/03/21 07:57:43;;;;;;;18.42;9.35;;;;;;;23.94;25.10;157436.91;1684339;85;21196;-81
2021/03/21 08:00:17;;;;;;;17.10;9.00;;;;;;;24.02;24.85;157458.11;1630059;85;21267;-77
2021/03/21 08:03:11;;;;;;;19.00;10.18;;;;;;;24.45;24.96;157570.91;1721354;83;21363;-80
2021/03/21 08:05:44;;;;;;;18.30;9.18;;;;;;;24.63;24.89;157618.69;1684038;85;21342;-81
2021/03/21 08:08:19;;;;;;;16.30;8.50;;;;;;;24.67;24.70;157631.94;1655000;87;21844;-77
2021/03/21 08:10:56;;;;;;;16.45;9.53;;;;;;;24.84;24.78;157677.08;1676105;85;21204;-76
2021/03/21 08:13:41;;;;;;;16.07;9.30;;;;;;;24.86;24.55;157682.39;1656528;86;21214;-77
2021/03/21 08:16:30;;;;;;;19.90;10.48;;;;;;;25.09;23.94;157743.44;1676028;85;21212;-79
2021/03/21 08:19:05;;;;;;;17.67;9.15;;;;;;;24.55;24.26;157598.78;1684013;85;21403;-79
2021/03/21 08:21:44;;;;;;;14.45;8.70;;;;;;;24.12;24.62;157483.33;1675915;85;21235;-80
2021/03/21 08:24:30;;;;;;;17.23;9.60;;;;;;;24.57;24.47;157602.75;1629008;86;21205;-77
2021/03/21 08:27:10;;;;;;;20.00;9.93;;;;;;;24.59;24.43;157608.06;1654722;87;21888;-78
2021/03/21 08:30:09;;;;;;;15.50;8.88;;;;;;;24.71;24.07;157642.56;1671810;86;21245;-80
2021/03/21 08:32:57;;;;;;;14.13;8.43;;;;;;;24.53;24.23;157593.47;1630659;86;21327;-80
2021/03/21 08:35:37;;;;;;;16.77;8.90;;;;;;;23.90;24.31;157424.98;1628359;86;21258;-81
2021/03/21 08:38:18;;;;;;;15.40;8.50;;;;;;;23.86;24.21;157414.36;1665683;86;21329;-83
2021/03/21 08:40:59;;;;;;;13.38;8.15;;;;;;;24.04;24.23;157462.13;1669941;86;21329;-78
2021/03/21 08:43:37;;;;;;;15.55;8.38;;;;;;;23.62;24.26;157350.66;1670635;86;21191;-77
2021/03/21 08:46:16;;;;;;;15.95;8.78;;;;;;;23.68;24.10;157366.59;1657270;84;21907;-77
2021/03/21 08:49:02;;;;;;;13.65;8.08;;;;;;;24.03;24.04;157460.77;1654715;84;21183;-76
2021/03/21 08:51:43;;;;;;;14.50;8.50;;;;;;;24.23;23.76;157512.50;1637112;85;21242;-78
2021/03/21 08:54:23;;;;;;;15.58;8.58;;;;;;;24.98;23.64;157712.88;1655974;84;21222;-77
2021/03/21 08:57:12;;;;;;;15.25;7.95;;;;;;;25.39;23.16;157823.11;1653000;84;21278;-78
2021/03/21 08:59:46;;;;;;;12.00;7.45;;;;;;;26.33;22.75;158072.83;1656536;83;21198;-78
2021/03/21 09:02:20;;;;;;;14.60;8.00;;;;;;;27.89;21.90;158491.72;1661581;84;21203;-77
2021/03/21 09:05:04;;;;;;;12.37;7.40;;;;;;;29.48;20.73;158917.75;1666827;86;21264;-79
2021/03/21 09:07:38;;;;;;;13.10;7.25;;;;;;;30.36;19.86;159153.58;1670338;85;21345;-77
2021/03/21 09:10:29;;;;;;;12.53;6.78;;;;;;;30.54;19.52;159201.64;1675400;85;21321;-77
2021/03/21 09:13:16;;;;;;;12.53;7.00;;;;;;;31.15;19.25;159362.97;1711466;84;21809;-77
2021/03/21 09:16:02;;;;;;;11.78;7.00;;;;;;;31.71;18.83;159515.05;1730692;82;21757;-78
2021/03/21 09:18:40;;;;;;;13.30;6.80;;;;;;;32.34;18.57;159683.22;1730569;82;21311;-78
2021/03/21 09:21:26;;;;;;;12.45;6.90;;;;;;;32.78;18.35;159800.72;1728879;83;21180;-77
2021/03/21 09:24:11;;;;;;;11.75;6.90;;;;;;;33.45;18.08;159980.98;1730534;82;21357;-77
2021/03/21 09:26:47;;;;;;;9.90;6.55;;;;;;;33.25;17.38;159928.94;1724558;82;21340;-81
2021/03/21 09:29:30;;;;;;;11.95;7.12;;;;;;;32.89;17.42;159831.39;1730421;82;21194;-79
2021/03/21 09:32:31;;;;;;;10.55;6.62;;;;;;;32.68;17.66;159775.34;1743731;81;21244;-80
2021/03/21 09:35:36;;;;;;;11.50;6.97;;;;;;;32.89;17.69;159830.08;1732400;82;21173;-78
2021/03/21 09:38:21;;;;;;;12.13;6.33;;;;;;;32.38;17.86;159693.88;1713120;82;21742;-78
2021/03/21 09:41:03;;;;;;;9.30;5.83;;;;;;;31.10;18.35;159350.98;1728750;82;21202;-78
2021/03/21 09:43:38;;;;;;;10.72;6.83;;;;;;;30.35;18.62;159149.61;1719062;83;21685;-79
2021/03/21 09:46:44;;;;;;;11.53;6.70;;;;;;;29.54;19.27;158933.75;1725889;83;21348;-75
2021/03/21 09:49:28;;;;;;;15.98;6.53;;;;;;;29.02;19.84;158792.53;1720200;83;21235;-77
2021/03/21 09:52:34;;;;;;;11.70;6.35;;;;;;;28.58;20.00;158675.36;1725856;83;21308;-76
2021/03/21 09:55:32;;;;;;;11.05;6.10;;;;;;;29.26;19.67;158857.80;1684276;82;21165;-79
2021/03/21 09:58:49;;;;;;;11.20;6.10;;;;;;;30.07;18.93;159074.97;1715498;81;21884;-77
2021/03/21 10:01:52;;;;;;;9.80;6.25;;;;;;;30.58;18.57;159210.97;1722599;83;21722;-79
2021/03/21 10:04:43;;;;;;;10.72;5.97;;;;;;;31.28;18.18;159398.95;1677514;83;21201;-79
2021/03/21 10:07:24;;;;;;;10.00;6.30;;;;;;;32.44;18.12;159709.91;1716094;82;21185;-79
2021/03/21 10:09:57;;;;;;;11.15;6.47;;;;;;;33.41;17.44;159970.33;1735277;81;21180;-79
2021/03/21 10:12:31;;;;;;;10.70;6.97;;;;;;;33.56;17.10;160010.41;1737651;81;21865;-78
2021/03/21 10:15:09;;;;;;;10.48;6.67;;;;;;;33.96;17.24;160117.30;1733356;82;21220;-79
2021/03/21 10:17:42;;;;;;;8.95;6.50;;;;;;;34.43;17.43;160244.31;1728051;82;21236;-77
2021/03/21 10:20:16;;;;;;;10.13;6.20;;;;;;;34.45;16.79;160250.98;1738735;81;21851;-79
2021/03/21 10:22:52;;;;;;;10.63;6.53;;;;;;;34.50;16.68;160263.02;1732789;81;21865;-77
2021/03/21 10:25:30;;;;;;;12.90;7.70;;;;;;;34.60;16.75;160291.16;1721941;80;21773;-78
2021/03/21 10:28:23;;;;;;;12.23;6.50;;;;;;;34.38;16.94;160232.25;1704249;83;21169;-76
2021/03/21 10:31:26;;;;;;;9.43;5.53;;;;;;;33.97;17.10;160119.97;1732897;81;21319;-79
2021/03/21 10:34:09;;;;;;;12.25;5.85;;;;;;;33.65;16.84;160035.81;1726247;83;21805;-79
2021/03/21 10:36:46;;;;;;;10.63;5.85;;;;;;;33.87;16.76;160093.27;1736389;82;21313;-79
2021/03/21 10:39:29;;;;;;;8.90;5.37;;;;;;;33.73;16.82;160057.22;1719168;82;21365;-78
2021/03/21 10:42:14;;;;;;;8.25;5.45;;;;;;;34.16;17.11;160173.45;1747839;82;21314;-79
2021/03/21 10:44:52;;;;;;;8.85;6.00;;;;;;;34.05;16.67;160142.70;1700267;82;21180;-78
2021/03/21 10:47:30;;;;;;;9.65;5.37;;;;;;;33.82;16.92;160079.89;1734965;82;21311;-79
2021/03/21 10:50:07;;;;;;;9.90;6.08;;;;;;;33.87;16.94;160094.58;1740598;82;21731;-80
2021/03/21 10:52:48;;;;;;;9.73;6.08;;;;;;;33.64;16.80;160033.13;1747926;82;21181;-80
2021/03/21 10:55:22;;;;;;;9.65;5.37;;;;;;;33.49;16.84;159993.05;1724380;82;21334;-80
2021/03/21 10:58:02;;;;;;;9.88;5.50;;;;;;;32.19;17.19;159643.19;1731312;82;21373;-77
2021/03/21 11:00:35;;;;;;;7.55;5.03;;;;;;;32.04;17.75;159603.09;1711762;82;21335;-80
2021/03/21 11:03:16;;;;;;;7.30;5.78;;;;;;;32.68;17.61;159775.34;1731554;82;21752;-80
2021/03/21 11:05:50;;;;;;;8.00;5.40;;;;;;;33.30;17.24;159940.95;1729294;83;21178;-79
2021/03/21 11:08:33;;;;;;;7.40;5.17;;;;;;;33.21;17.35;159918.25;1647107;84;21199;-81
2021/03/21 11:11:26;;;;;;;8.98;5.10;;;;;;;33.10;17.05;159887.56;1708311;83;22138;-80
2021/03/21 11:14:22;;;;;;;9.65;5.20;;;;;;;33.82;16.93;160079.89;1699261;83;21388;-81
2021/03/21 11:17:22;;;;;;;8.75;5.45;;;;;;;34.39;16.64;160234.92;1719715;83;21431;-82
2021/03/21 11:19:58;;;;;;;8.03;5.45;;;;;;;34.07;16.88;160148.06;1724071;81;21294;-78
2021/03/21 11:22:37;;;;;;;7.55;4.95;;;;;;;33.99;16.83;160125.33;1739131;81;21373;-78
2021/03/21 11:25:16;;;;;;;7.78;5.00;;;;;;;34.00;16.70;160129.31;1727329;82;21256;-77
2021/03/21 11:27:50;;;;;;;9.25;5.15;;;;;;;33.95;16.56;160115.98;1735338;82;21175;-81
2021/03/21 11:30:28;;;;;;;9.15;5.00;;;;;;;33.88;16.76;160095.94;1734849;82;21183;-82
2021/03/21 11:33:26;;;;;;;8.08;5.42;;;;;;;33.98;16.53;160122.66;1734778;81;21198;-87
2021/03/21 11:36:28;;;;;;;7.47;5.00;;;;;;;34.05;16.66;160142.70;1761847;81;21329;-84
2021/03/21 11:39:28;;;;;;;8.13;5.70;;;;;;;33.93;17.03;160109.27;1722244;81;21251;-87
2021/03/21 11:42:01;;;;;;;9.08;5.15;;;;;;;33.86;16.76;160090.59;1682028;82;21347;-84
2021/03/21 11:44:34;;;;;;;9.40;4.78;;;;;;;33.64;16.73;160033.13;1676747;83;21369;-81
2021/03/21 11:47:27;;;;;;;7.20;4.90;;;;;;;32.57;17.12;159745.92;1651610;84;21337;-80
2021/03/21 11:50:00;;;;;;;7.72;5.08;;;;;;;31.69;17.39;159509.70;1661245;85;21380;-78
2021/03/21 11:52:38;;;;;;;9.00;4.90;;;;;;;31.74;17.63;159523.06;1673619;84;21748;-80
2021/03/21 11:55:20;;;;;;;7.22;4.70;;;;;;;32.19;17.35;159643.19;1684491;83;21208;-80
2021/03/21 11:58:03;;;;;;;7.00;4.28;;;;;;;32.63;17.35;159760.66;1648393;84;21398;-84
2021/03/21 12:00:39;;;;;;;9.65;5.05;;;;;;;32.87;17.17;159824.73;1672455;83;21354;-78
2021/03/21 12:03:18;;;;;;;7.10;4.83;;;;;;;33.33;17.14;159950.30;1668420;83;21862;-80
2021/03/21 12:06:06;;;;;;;8.25;5.37;;;;;;;33.55;17.14;160009.05;1667037;83;21927;-80
2021/03/21 12:08:40;;;;;;;7.28;4.55;;;;;;;33.48;16.98;159989.00;1670057;83;21952;-79
2021/03/21 12:11:40;;;;;;;9.13;4.70;;;;;;;33.18;17.13;159910.22;1667808;83;21349;-79
2021/03/21 12:14:35;;;;;;;8.30;4.92;;;;;;;32.97;17.52;159852.80;1673406;83;21421;-80
2021/03/21 12:17:28;;;;;;;7.60;5.25;;;;;;;32.17;17.41;159636.53;1668682;84;21900;-83
2021/03/21 12:20:32;;;;;;;7.85;4.75;;;;;;;31.59;17.69;159483.03;1674258;83;21232;-84
2021/03/21 12:23:05;;;;;;;6.60;4.28;;;;;;;31.17;17.58;159369.62;1673205;83;21444;-84
2021/03/21 12:25:38;;;;;;;8.68;5.08;;;;;;;30.68;17.88;159238.91;1678612;84;21366;-82
2021/03/21 12:28:21;;;;;;;6.58;4.47;;;;;;;30.50;18.05;159189.59;1675334;85;21265;-80
2021/03/21 12:30:55;;;;;;;6.25;4.50;;;;;;;30.30;18.48;159134.95;1688554;83;21201;-80
2021/03/21 12:33:33;;;;;;;9.65;5.47;;;;;;;30.23;18.58;159116.27;1690947;83;21165;-81
2021/03/21 12:36:11;;;;;;;9.93;5.15;;;;;;;29.75;19.07;158988.31;1714249;83;21354;-80
2021/03/21 12:38:48;;;;;;;9.85;5.47;;;;;;;29.41;19.29;158899.12;1716178;83;21824;-81
2021/03/21 12:41:37;;;;;;;6.75;4.33;;;;;;;29.38;19.29;158889.81;1718026;82;21158;-81
2021/03/21 12:44:26;;;;;;;8.43;4.90;;;;;;;29.14;19.53;158824.48;1714405;81;21330;-77
2021/03/21 12:47:20;;;;;;;8.78;4.87;;;;;;;29.06;19.57;158804.50;1740344;81;21838;-76